sensor_id;sensor_type;location;lat;lon;timestamp;temperature;humidity
6270;DHT22;3168;51.684;6.954;2023-02-01T00:01:42;4.90;24.70
6270;DHT22;3168;51.684;6.954;2023-02-01T00:04:07;4.90;22.40
6270;DHT22;3168;51.684;6.954;2023-02-01T00:06:33;5.00;20.70
6270;DHT22;3168;51.684;6.954;2023-02-01T00:08:59;5.00;19.00
6270;DHT22;3168;51.684;6.954;2023-02-01T00:11:25;5.00;14.80
6270;DHT22;3168;51.684;6.954;2023-02-01T00:13:51;5.00;13.10
6270;DHT22;3168;51.684;6.954;2023-02-01T00:16:19;5.00;9.80
6270;DHT22;3168;51.684;6.954;2023-02-01T00:18:44;5.00;7.50
6270;DHT22;3168;51.684;6.954;2023-02-01T00:21:10;5.00;4.80
6270;DHT22;3168;51.684;6.954;2023-02-01T00:23:36;5.10;1.00
6270;DHT22;3168;51.684;6.954;2023-02-01T00:26:03;5.10;1.00
6270;DHT22;3168;51.684;6.954;2023-02-01T00:28:28;5.00;1.00
6270;DHT22;3168;51.684;6.954;2023-02-01T00:30:57;5.00;1.00
6270;DHT22;3168;51.684;6.954;2023-02-01T00:33:23;5.00;1.00
6270;DHT22;3168;51.684;6.954;2023-02-01T00:35:48;5.00;1.00
6270;DHT22;3168;51.684;6.954;2023-02-01T00:38:14;5.10;1.00
6270;DHT22;3168;51.684;6.954;2023-02-01T00:40:40;5.00;1.00
6270;DHT22;3168;51.684;6.954;2023-02-01T00:43:06;5.10;1.00
6270;DHT22;3168;51.684;6.954;2023-02-01T00:45:31;5.00;1.00
6270;DHT22;3168;51.684;6.954;2023-02-01T00:47:57;5.10;1.00
6270;DHT22;3168;51.684;6.954;2023-02-01T00:50:23;5.10;1.00
6270;DHT22;3168;51.684;6.954;2023-02-01T00:52:49;5.10;1.00
6270;DHT22;3168;51.684;6.954;2023-02-01T00:55:15;5.10;1.00
6270;DHT22;3168;51.684;6.954;2023-02-01T00:57:41;5.10;1.00
6270;DHT22;3168;51.684;6.954;2023-02-01T01:00:08;5.10;1.00
6270;DHT22;3168;51.684;6.954;2023-02-01T01:02:35;5.20;1.00
6270;DHT22;3168;51.684;6.954;2023-02-01T01:05:00;5.10;1.00
6270;DHT22;3168;51.684;6.954;2023-02-01T01:07:27;5.10;1.00
6270;DHT22;3168;51.684;6.954;2023-02-01T01:09:53;5.10;1.00
6270;DHT22;3168;51.684;6.954;2023-02-01T01:12:18;5.10;1.00
6270;DHT22;3168;51.684;6.954;2023-02-01T01:14:44;5.10;1.00
6270;DHT22;3168;51.684;6.954;2023-02-01T01:17:11;5.10;1.00
6270;DHT22;3168;51.684;6.954;2023-02-01T01:19:37;5.10;1.00
6270;DHT22;3168;51.684;6.954;2023-02-01T01:22:03;5.10;1.00
6270;DHT22;3168;51.684;6.954;2023-02-01T01:24:29;5.20;1.00
6270;DHT22;3168;51.684;6.954;2023-02-01T01:26:55;5.10;1.00
6270;DHT22;3168;51.684;6.954;2023-02-01T01:29:21;5.10;1.00
6270;DHT22;3168;51.684;6.954;2023-02-01T01:31:47;5.20;1.00
6270;DHT22;3168;51.684;6.954;2023-02-01T01:34:12;5.10;1.00
6270;DHT22;3168;51.684;6.954;2023-02-01T01:36:38;5.10;1.00
6270;DHT22;3168;51.684;6.954;2023-02-01T01:39:04;5.20;1.00
6270;DHT22;3168;51.684;6.954;2023-02-01T01:41:30;5.20;1.00
6270;DHT22;3168;51.684;6.954;2023-02-01T01:43:57;5.20;1.00
6270;DHT22;3168;51.684;6.954;2023-02-01T01:46:23;5.20;1.00
6270;DHT22;3168;51.684;6.954;2023-02-01T01:48:50;5.20;1.00
6270;DHT22;3168;51.684;6.954;2023-02-01T01:51:15;5.20;1.00
6270;DHT22;3168;51.684;6.954;2023-02-01T01:53:43;5.10;1.00
6270;DHT22;3168;51.684;6.954;2023-02-01T01:56:07;5.30;1.00
6270;DHT22;3168;51.684;6.954;2023-02-01T01:58:33;5.30;1.00
6270;DHT22;3168;51.684;6.954;2023-02-01T02:00:59;5.20;1.00
6270;DHT22;3168;51.684;6.954;2023-02-01T02:03:28;5.20;1.00
6270;DHT22;3168;51.684;6.954;2023-02-01T02:05:53;5.30;1.00
6270;DHT22;3168;51.684;6.954;2023-02-01T02:08:19;5.30;1.00
6270;DHT22;3168;51.684;6.954;2023-02-01T02:10:45;5.30;1.00
6270;DHT22;3168;51.684;6.954;2023-02-01T02:13:17;5.40;1.00
6270;DHT22;3168;51.684;6.954;2023-02-01T02:15:46;5.40;1.00
6270;DHT22;3168;51.684;6.954;2023-02-01T02:18:12;5.40;1.00
6270;DHT22;3168;51.684;6.954;2023-02-01T02:20:51;5.40;1.00
6270;DHT22;3168;51.684;6.954;2023-02-01T02:23:22;5.40;1.00
6270;DHT22;3168;51.684;6.954;2023-02-01T02:31:20;5.40;1.00
6270;DHT22;3168;51.684;6.954;2023-02-01T02:33:52;5.40;1.00
6270;DHT22;3168;51.684;6.954;2023-02-01T02:39:10;5.40;1.00
6270;DHT22;3168;51.684;6.954;2023-02-01T02:44:28;5.50;1.00
6270;DHT22;3168;51.684;6.954;2023-02-01T02:46:56;5.40;1.00
6270;DHT22;3168;51.684;6.954;2023-02-01T02:49:39;5.50;1.00
6270;DHT22;3168;51.684;6.954;2023-02-01T02:52:04;5.50;1.00
6270;DHT22;3168;51.684;6.954;2023-02-01T02:54:36;5.50;1.00
6270;DHT22;3168;51.684;6.954;2023-02-01T02:57:07;5.50;1.00
6270;DHT22;3168;51.684;6.954;2023-02-01T02:59:38;5.50;1.00
6270;DHT22;3168;51.684;6.954;2023-02-01T03:02:10;5.60;1.00
6270;DHT22;3168;51.684;6.954;2023-02-01T03:04:42;5.50;1.00
6270;DHT22;3168;51.684;6.954;2023-02-01T03:07:14;5.50;1.00
6270;DHT22;3168;51.684;6.954;2023-02-01T03:09:38;5.50;1.00
6270;DHT22;3168;51.684;6.954;2023-02-01T03:12:06;5.50;1.00
6270;DHT22;3168;51.684;6.954;2023-02-01T03:14:36;5.50;1.00
6270;DHT22;3168;51.684;6.954;2023-02-01T03:17:07;5.40;1.00
6270;DHT22;3168;51.684;6.954;2023-02-01T03:19:32;5.40;1.00
6270;DHT22;3168;51.684;6.954;2023-02-01T03:21:57;5.40;1.00
6270;DHT22;3168;51.684;6.954;2023-02-01T03:24:25;5.40;1.00
6270;DHT22;3168;51.684;6.954;2023-02-01T03:26:51;5.40;1.00
6270;DHT22;3168;51.684;6.954;2023-02-01T03:29:16;5.40;1.00
6270;DHT22;3168;51.684;6.954;2023-02-01T03:31:40;5.40;1.00
6270;DHT22;3168;51.684;6.954;2023-02-01T03:34:06;5.30;1.00
6270;DHT22;3168;51.684;6.954;2023-02-01T03:36:52;5.30;1.00
6270;DHT22;3168;51.684;6.954;2023-02-01T03:39:53;5.20;1.00
6270;DHT22;3168;51.684;6.954;2023-02-01T03:42:00;5.30;1.00
6270;DHT22;3168;51.684;6.954;2023-02-01T03:44:26;5.30;1.00
6270;DHT22;3168;51.684;6.954;2023-02-01T03:47:28;5.30;1.00
6270;DHT22;3168;51.684;6.954;2023-02-01T03:49:46;5.20;1.00
6270;DHT22;3168;51.684;6.954;2023-02-01T03:52:14;5.20;1.00
6270;DHT22;3168;51.684;6.954;2023-02-01T03:54:39;5.10;1.00
6270;DHT22;3168;51.684;6.954;2023-02-01T03:57:06;5.10;1.00
6270;DHT22;3168;51.684;6.954;2023-02-01T03:59:30;5.10;1.00
6270;DHT22;3168;51.684;6.954;2023-02-01T04:01:56;5.10;1.00
6270;DHT22;3168;51.684;6.954;2023-02-01T04:04:22;5.10;1.00
6270;DHT22;3168;51.684;6.954;2023-02-01T04:06:49;5.00;1.00
6270;DHT22;3168;51.684;6.954;2023-02-01T04:09:14;5.00;1.00
6270;DHT22;3168;51.684;6.954;2023-02-01T04:11:40;5.00;1.00
6270;DHT22;3168;51.684;6.954;2023-02-01T04:14:06;5.00;1.00
6270;DHT22;3168;51.684;6.954;2023-02-01T04:16:32;5.00;1.00
6270;DHT22;3168;51.684;6.954;2023-02-01T04:18:58;5.00;1.00
6270;DHT22;3168;51.684;6.954;2023-02-01T04:21:24;5.00;1.00
6270;DHT22;3168;51.684;6.954;2023-02-01T04:23:51;5.10;1.00
6270;DHT22;3168;51.684;6.954;2023-02-01T04:26:16;5.10;1.00
6270;DHT22;3168;51.684;6.954;2023-02-01T04:28:42;5.00;1.00
6270;DHT22;3168;51.684;6.954;2023-02-01T04:31:08;5.10;1.00
6270;DHT22;3168;51.684;6.954;2023-02-01T04:33:34;5.10;1.00
6270;DHT22;3168;51.684;6.954;2023-02-01T04:35:59;5.10;1.00
6270;DHT22;3168;51.684;6.954;2023-02-01T04:38:25;5.00;1.00
6270;DHT22;3168;51.684;6.954;2023-02-01T04:40:51;5.10;1.00
6270;DHT22;3168;51.684;6.954;2023-02-01T04:43:17;5.10;1.00
6270;DHT22;3168;51.684;6.954;2023-02-01T04:45:48;5.20;1.00
6270;DHT22;3168;51.684;6.954;2023-02-01T04:48:14;5.20;1.00
6270;DHT22;3168;51.684;6.954;2023-02-01T04:50:39;5.20;1.00
6270;DHT22;3168;51.684;6.954;2023-02-01T04:53:05;5.20;1.00
6270;DHT22;3168;51.684;6.954;2023-02-01T04:55:31;5.20;1.00
6270;DHT22;3168;51.684;6.954;2023-02-01T04:57:57;5.20;1.00
6270;DHT22;3168;51.684;6.954;2023-02-01T05:00:23;5.30;1.00
6270;DHT22;3168;51.684;6.954;2023-02-01T05:02:48;5.30;1.00
6270;DHT22;3168;51.684;6.954;2023-02-01T05:05:14;5.40;1.00
6270;DHT22;3168;51.684;6.954;2023-02-01T05:07:40;5.40;1.00
6270;DHT22;3168;51.684;6.954;2023-02-01T05:10:07;5.30;1.00
6270;DHT22;3168;51.684;6.954;2023-02-01T05:12:33;5.30;1.00
6270;DHT22;3168;51.684;6.954;2023-02-01T05:15:05;5.30;1.00
6270;DHT22;3168;51.684;6.954;2023-02-01T05:17:31;5.40;1.00
6270;DHT22;3168;51.684;6.954;2023-02-01T05:19:57;5.30;1.00
6270;DHT22;3168;51.684;6.954;2023-02-01T05:22:23;5.40;1.00
6270;DHT22;3168;51.684;6.954;2023-02-01T05:24:49;5.40;1.00
6270;DHT22;3168;51.684;6.954;2023-02-01T05:27:14;5.40;1.00
6270;DHT22;3168;51.684;6.954;2023-02-01T05:29:40;5.40;1.00
6270;DHT22;3168;51.684;6.954;2023-02-01T05:32:06;5.30;1.00
6270;DHT22;3168;51.684;6.954;2023-02-01T05:34:32;5.30;1.00
6270;DHT22;3168;51.684;6.954;2023-02-01T05:36:58;5.30;1.00
6270;DHT22;3168;51.684;6.954;2023-02-01T05:39:23;5.30;1.00
6270;DHT22;3168;51.684;6.954;2023-02-01T05:41:49;5.20;1.00
6270;DHT22;3168;51.684;6.954;2023-02-01T05:44:16;5.20;1.00
6270;DHT22;3168;51.684;6.954;2023-02-01T05:46:41;5.20;1.00
6270;DHT22;3168;51.684;6.954;2023-02-01T05:49:07;5.30;1.00
6270;DHT22;3168;51.684;6.954;2023-02-01T05:51:33;5.30;1.00
6270;DHT22;3168;51.684;6.954;2023-02-01T05:53:59;5.40;1.00
6270;DHT22;3168;51.684;6.954;2023-02-01T05:56:25;5.30;1.00
6270;DHT22;3168;51.684;6.954;2023-02-01T05:58:51;5.30;1.00
6270;DHT22;3168;51.684;6.954;2023-02-01T06:01:16;5.40;1.00
6270;DHT22;3168;51.684;6.954;2023-02-01T06:03:42;5.40;1.00
6270;DHT22;3168;51.684;6.954;2023-02-01T06:06:08;5.40;1.00
6270;DHT22;3168;51.684;6.954;2023-02-01T06:08:34;5.40;1.00
6270;DHT22;3168;51.684;6.954;2023-02-01T06:11:00;5.40;1.00
6270;DHT22;3168;51.684;6.954;2023-02-01T06:13:26;5.40;1.00
6270;DHT22;3168;51.684;6.954;2023-02-01T06:15:51;5.30;1.00
6270;DHT22;3168;51.684;6.954;2023-02-01T06:18:17;5.40;1.00
6270;DHT22;3168;51.684;6.954;2023-02-01T06:20:43;5.40;1.00
6270;DHT22;3168;51.684;6.954;2023-02-01T06:23:09;5.40;1.00
6270;DHT22;3168;51.684;6.954;2023-02-01T06:25:34;5.40;1.00
6270;DHT22;3168;51.684;6.954;2023-02-01T06:28:00;5.40;1.00
6270;DHT22;3168;51.684;6.954;2023-02-01T06:30:26;5.40;1.00
6270;DHT22;3168;51.684;6.954;2023-02-01T06:32:52;5.40;1.00
6270;DHT22;3168;51.684;6.954;2023-02-01T06:35:18;5.40;1.00
6270;DHT22;3168;51.684;6.954;2023-02-01T06:37:44;5.40;1.00
6270;DHT22;3168;51.684;6.954;2023-02-01T06:40:10;5.40;1.00
6270;DHT22;3168;51.684;6.954;2023-02-01T06:42:37;5.40;1.00
6270;DHT22;3168;51.684;6.954;2023-02-01T06:45:06;5.30;1.00
6270;DHT22;3168;51.684;6.954;2023-02-01T06:47:32;5.30;1.00
6270;DHT22;3168;51.684;6.954;2023-02-01T06:49:59;5.30;1.00
6270;DHT22;3168;51.684;6.954;2023-02-01T06:52:24;5.30;1.00
6270;DHT22;3168;51.684;6.954;2023-02-01T06:54:50;5.40;1.00
6270;DHT22;3168;51.684;6.954;2023-02-01T06:57:16;5.40;1.00
6270;DHT22;3168;51.684;6.954;2023-02-01T06:59:42;5.40;1.00
6270;DHT22;3168;51.684;6.954;2023-02-01T07:02:10;5.40;1.00
6270;DHT22;3168;51.684;6.954;2023-02-01T07:04:36;5.40;1.00
6270;DHT22;3168;51.684;6.954;2023-02-01T07:07:02;5.40;1.00
6270;DHT22;3168;51.684;6.954;2023-02-01T07:09:28;5.40;1.00
6270;DHT22;3168;51.684;6.954;2023-02-01T07:11:54;5.40;1.00
6270;DHT22;3168;51.684;6.954;2023-02-01T07:14:19;5.40;1.00
6270;DHT22;3168;51.684;6.954;2023-02-01T07:16:46;5.40;1.00
6270;DHT22;3168;51.684;6.954;2023-02-01T07:19:12;5.40;1.00
6270;DHT22;3168;51.684;6.954;2023-02-01T07:21:37;5.40;1.00
6270;DHT22;3168;51.684;6.954;2023-02-01T07:24:04;5.40;1.00
6270;DHT22;3168;51.684;6.954;2023-02-01T07:26:30;5.50;1.00
6270;DHT22;3168;51.684;6.954;2023-02-01T07:28:56;5.50;1.00
6270;DHT22;3168;51.684;6.954;2023-02-01T07:31:22;5.40;1.00
6270;DHT22;3168;51.684;6.954;2023-02-01T07:33:48;5.50;1.00
6270;DHT22;3168;51.684;6.954;2023-02-01T07:36:15;5.50;1.00
6270;DHT22;3168;51.684;6.954;2023-02-01T07:38:40;5.50;1.00
6270;DHT22;3168;51.684;6.954;2023-02-01T07:41:06;5.50;1.00
6270;DHT22;3168;51.684;6.954;2023-02-01T07:43:32;5.50;1.00
6270;DHT22;3168;51.684;6.954;2023-02-01T07:45:57;5.50;1.00
6270;DHT22;3168;51.684;6.954;2023-02-01T07:48:24;5.50;1.00
6270;DHT22;3168;51.684;6.954;2023-02-01T07:50:56;5.50;1.00
6270;DHT22;3168;51.684;6.954;2023-02-01T07:53:15;5.50;1.00
6270;DHT22;3168;51.684;6.954;2023-02-01T07:55:41;5.50;1.00
6270;DHT22;3168;51.684;6.954;2023-02-01T07:58:06;5.50;1.00
6270;DHT22;3168;51.684;6.954;2023-02-01T08:00:32;5.50;1.00
6270;DHT22;3168;51.684;6.954;2023-02-01T08:03:04;5.60;1.00
6270;DHT22;3168;51.684;6.954;2023-02-01T08:05:30;5.60;1.00
6270;DHT22;3168;51.684;6.954;2023-02-01T08:07:56;5.60;1.00
6270;DHT22;3168;51.684;6.954;2023-02-01T08:10:22;5.60;1.00
6270;DHT22;3168;51.684;6.954;2023-02-01T08:12:47;5.60;1.00
6270;DHT22;3168;51.684;6.954;2023-02-01T08:15:14;5.60;1.00
6270;DHT22;3168;51.684;6.954;2023-02-01T08:17:45;5.60;1.00
6270;DHT22;3168;51.684;6.954;2023-02-01T08:20:07;5.60;1.00
6270;DHT22;3168;51.684;6.954;2023-02-01T08:22:33;5.60;1.00
6270;DHT22;3168;51.684;6.954;2023-02-01T08:24:59;5.60;1.00
6270;DHT22;3168;51.684;6.954;2023-02-01T08:27:25;5.60;1.00
6270;DHT22;3168;51.684;6.954;2023-02-01T08:29:51;5.70;1.00
6270;DHT22;3168;51.684;6.954;2023-02-01T08:32:17;5.70;1.00
6270;DHT22;3168;51.684;6.954;2023-02-01T08:34:42;5.70;1.00
6270;DHT22;3168;51.684;6.954;2023-02-01T08:37:08;5.70;1.00
6270;DHT22;3168;51.684;6.954;2023-02-01T08:39:34;5.70;1.00
6270;DHT22;3168;51.684;6.954;2023-02-01T08:42:00;5.80;1.00
6270;DHT22;3168;51.684;6.954;2023-02-01T08:44:45;5.80;1.00
6270;DHT22;3168;51.684;6.954;2023-02-01T08:47:11;5.80;1.00
6270;DHT22;3168;51.684;6.954;2023-02-01T08:49:37;5.90;1.00
6270;DHT22;3168;51.684;6.954;2023-02-01T08:52:03;5.90;1.00
6270;DHT22;3168;51.684;6.954;2023-02-01T08:54:29;5.90;1.00
6270;DHT22;3168;51.684;6.954;2023-02-01T08:56:55;5.90;1.00
6270;DHT22;3168;51.684;6.954;2023-02-01T08:59:21;5.90;1.00
6270;DHT22;3168;51.684;6.954;2023-02-01T09:01:47;5.90;1.00
6270;DHT22;3168;51.684;6.954;2023-02-01T09:04:12;5.90;1.00
6270;DHT22;3168;51.684;6.954;2023-02-01T09:06:40;6.00;1.00
6270;DHT22;3168;51.684;6.954;2023-02-01T09:09:04;6.00;1.00
6270;DHT22;3168;51.684;6.954;2023-02-01T09:11:30;6.00;1.00
6270;DHT22;3168;51.684;6.954;2023-02-01T09:13:56;6.00;1.00
6270;DHT22;3168;51.684;6.954;2023-02-01T09:16:22;6.10;1.00
6270;DHT22;3168;51.684;6.954;2023-02-01T09:18:47;6.10;1.00
6270;DHT22;3168;51.684;6.954;2023-02-01T09:21:13;6.10;1.00
6270;DHT22;3168;51.684;6.954;2023-02-01T09:23:39;6.10;1.00
6270;DHT22;3168;51.684;6.954;2023-02-01T09:26:05;6.10;1.00
6270;DHT22;3168;51.684;6.954;2023-02-01T09:28:31;6.20;1.00
6270;DHT22;3168;51.684;6.954;2023-02-01T09:30:58;6.20;1.00
6270;DHT22;3168;51.684;6.954;2023-02-01T09:33:24;6.20;1.00
6270;DHT22;3168;51.684;6.954;2023-02-01T09:35:54;6.30;1.00
6270;DHT22;3168;51.684;6.954;2023-02-01T09:38:15;6.30;1.00
6270;DHT22;3168;51.684;6.954;2023-02-01T09:40:42;6.30;1.00
6270;DHT22;3168;51.684;6.954;2023-02-01T09:43:30;6.40;1.00
6270;DHT22;3168;51.684;6.954;2023-02-01T09:46:06;6.40;1.00
6270;DHT22;3168;51.684;6.954;2023-02-01T09:48:32;6.30;1.00
6270;DHT22;3168;51.684;6.954;2023-02-01T09:50:58;6.40;1.00
6270;DHT22;3168;51.684;6.954;2023-02-01T09:55:58;6.40;1.00
6270;DHT22;3168;51.684;6.954;2023-02-01T09:58:24;6.40;1.00
6270;DHT22;3168;51.684;6.954;2023-02-01T10:00:53;6.40;1.00
6270;DHT22;3168;51.684;6.954;2023-02-01T10:03:18;6.40;1.00
6270;DHT22;3168;51.684;6.954;2023-02-01T10:05:55;6.50;1.00
6270;DHT22;3168;51.684;6.954;2023-02-01T10:08:33;6.50;1.00
6270;DHT22;3168;51.684;6.954;2023-02-01T10:10:56;6.50;1.00
6270;DHT22;3168;51.684;6.954;2023-02-01T10:13:43;6.40;1.00
6270;DHT22;3168;51.684;6.954;2023-02-01T10:16:21;6.40;1.00
6270;DHT22;3168;51.684;6.954;2023-02-01T10:18:57;6.40;1.00
6270;DHT22;3168;51.684;6.954;2023-02-01T10:24:10;6.30;1.00
6270;DHT22;3168;51.684;6.954;2023-02-01T10:26:33;6.20;1.00
6270;DHT22;3168;51.684;6.954;2023-02-01T10:29:00;6.20;1.00
6270;DHT22;3168;51.684;6.954;2023-02-01T10:31:26;6.20;1.00
6270;DHT22;3168;51.684;6.954;2023-02-01T10:33:52;6.20;1.00
6270;DHT22;3168;51.684;6.954;2023-02-01T10:36:34;6.20;1.00
6270;DHT22;3168;51.684;6.954;2023-02-01T10:38:59;6.30;1.00
6270;DHT22;3168;51.684;6.954;2023-02-01T10:41:29;6.40;1.00
6270;DHT22;3168;51.684;6.954;2023-02-01T10:43:53;6.40;1.00
6270;DHT22;3168;51.684;6.954;2023-02-01T10:46:17;6.40;1.00
6270;DHT22;3168;51.684;6.954;2023-02-01T10:48:43;6.30;1.00
6270;DHT22;3168;51.684;6.954;2023-02-01T10:51:12;6.30;1.00
6270;DHT22;3168;51.684;6.954;2023-02-01T10:53:42;6.40;1.00
6270;DHT22;3168;51.684;6.954;2023-02-01T10:56:08;6.40;1.00
6270;DHT22;3168;51.684;6.954;2023-02-01T10:58:33;6.40;1.00
6270;DHT22;3168;51.684;6.954;2023-02-01T11:01:02;6.40;1.00
6270;DHT22;3168;51.684;6.954;2023-02-01T11:03:36;6.50;1.00
6270;DHT22;3168;51.684;6.954;2023-02-01T11:06:01;6.50;1.00
6270;DHT22;3168;51.684;6.954;2023-02-01T11:08:26;6.60;1.00
6270;DHT22;3168;51.684;6.954;2023-02-01T11:10:59;6.60;1.00
6270;DHT22;3168;51.684;6.954;2023-02-01T11:13:24;6.70;1.00
6270;DHT22;3168;51.684;6.954;2023-02-01T11:15:55;6.80;1.00
6270;DHT22;3168;51.684;6.954;2023-02-01T11:18:17;6.80;1.00
6270;DHT22;3168;51.684;6.954;2023-02-01T11:20:45;6.90;1.00
6270;DHT22;3168;51.684;6.954;2023-02-01T11:23:16;6.80;1.00
6270;DHT22;3168;51.684;6.954;2023-02-01T11:25:48;6.90;1.00
6270;DHT22;3168;51.684;6.954;2023-02-01T11:28:20;6.80;1.00
6270;DHT22;3168;51.684;6.954;2023-02-01T11:30:45;6.90;1.00
6270;DHT22;3168;51.684;6.954;2023-02-01T11:33:16;6.90;1.00
6270;DHT22;3168;51.684;6.954;2023-02-01T11:35:41;6.90;1.00
6270;DHT22;3168;51.684;6.954;2023-02-01T11:40:52;6.90;1.00
6270;DHT22;3168;51.684;6.954;2023-02-01T11:43:24;6.80;1.00
6270;DHT22;3168;51.684;6.954;2023-02-01T11:45:55;6.60;1.00
6270;DHT22;3168;51.684;6.954;2023-02-01T11:48:20;6.50;1.00
6270;DHT22;3168;51.684;6.954;2023-02-01T11:53:31;6.30;1.00
6270;DHT22;3168;51.684;6.954;2023-02-01T11:58:36;6.20;1.00
6270;DHT22;3168;51.684;6.954;2023-02-01T12:01:03;6.10;1.00
6270;DHT22;3168;51.684;6.954;2023-02-01T12:03:39;6.20;1.00
6270;DHT22;3168;51.684;6.954;2023-02-01T12:06:08;6.10;1.00
6270;DHT22;3168;51.684;6.954;2023-02-01T12:08:52;6.20;1.00
6270;DHT22;3168;51.684;6.954;2023-02-01T12:14:33;6.30;1.00
6270;DHT22;3168;51.684;6.954;2023-02-01T12:17:08;6.40;1.00
6270;DHT22;3168;51.684;6.954;2023-02-01T12:19:43;6.50;1.00
6270;DHT22;3168;51.684;6.954;2023-02-01T12:22:12;6.60;1.00
6270;DHT22;3168;51.684;6.954;2023-02-01T12:24:54;6.70;1.00
6270;DHT22;3168;51.684;6.954;2023-02-01T12:27:34;6.70;1.00
6270;DHT22;3168;51.684;6.954;2023-02-01T12:30:22;6.80;1.00
6270;DHT22;3168;51.684;6.954;2023-02-01T12:35:32;6.80;1.00
6270;DHT22;3168;51.684;6.954;2023-02-01T12:38:18;6.80;1.00
6270;DHT22;3168;51.684;6.954;2023-02-01T12:41:53;6.80;1.00
6270;DHT22;3168;51.684;6.954;2023-02-01T12:46:14;6.80;1.00
6270;DHT22;3168;51.684;6.954;2023-02-01T12:48:50;6.70;1.00
6270;DHT22;3168;51.684;6.954;2023-02-01T12:51:09;6.80;1.00
6270;DHT22;3168;51.684;6.954;2023-02-01T12:54:02;6.80;1.00
6270;DHT22;3168;51.684;6.954;2023-02-01T12:56:32;6.80;1.00
6270;DHT22;3168;51.684;6.954;2023-02-01T12:58:58;6.80;1.00
6270;DHT22;3168;51.684;6.954;2023-02-01T13:01:27;6.90;1.00
6270;DHT22;3168;51.684;6.954;2023-02-01T13:04:17;6.80;1.00
6270;DHT22;3168;51.684;6.954;2023-02-01T13:06:49;6.70;1.00
6270;DHT22;3168;51.684;6.954;2023-02-01T13:09:34;6.80;1.00
6270;DHT22;3168;51.684;6.954;2023-02-01T13:11:59;6.90;1.00
6270;DHT22;3168;51.684;6.954;2023-02-01T13:14:32;6.90;1.00
6270;DHT22;3168;51.684;6.954;2023-02-01T13:16:58;7.00;1.00
6270;DHT22;3168;51.684;6.954;2023-02-01T13:22:00;7.10;1.00
6270;DHT22;3168;51.684;6.954;2023-02-01T13:24:32;7.10;1.00
6270;DHT22;3168;51.684;6.954;2023-02-01T13:26:56;7.10;1.00
6270;DHT22;3168;51.684;6.954;2023-02-01T13:29:22;7.10;1.00
6270;DHT22;3168;51.684;6.954;2023-02-01T13:32:11;7.20;1.00
6270;DHT22;3168;51.684;6.954;2023-02-01T13:34:47;7.20;1.00
6270;DHT22;3168;51.684;6.954;2023-02-01T13:42:34;7.30;1.00
6270;DHT22;3168;51.684;6.954;2023-02-01T13:45:02;7.30;1.00
6270;DHT22;3168;51.684;6.954;2023-02-01T13:47:29;7.30;1.00
6270;DHT22;3168;51.684;6.954;2023-02-01T13:49:55;7.20;1.00
6270;DHT22;3168;51.684;6.954;2023-02-01T13:52:27;7.30;1.00
6270;DHT22;3168;51.684;6.954;2023-02-01T13:57:39;7.20;1.00
6270;DHT22;3168;51.684;6.954;2023-02-01T14:02:49;7.30;1.00
6270;DHT22;3168;51.684;6.954;2023-02-01T14:08:15;7.40;1.00
6270;DHT22;3168;51.684;6.954;2023-02-01T14:10:54;7.50;1.00
6270;DHT22;3168;51.684;6.954;2023-02-01T14:13:36;7.40;1.00
6270;DHT22;3168;51.684;6.954;2023-02-01T14:16:17;7.40;1.00
6270;DHT22;3168;51.684;6.954;2023-02-01T14:18:57;7.20;1.00
6270;DHT22;3168;51.684;6.954;2023-02-01T14:21:30;7.20;1.00
6270;DHT22;3168;51.684;6.954;2023-02-01T14:24:01;7.10;1.00
6270;DHT22;3168;51.684;6.954;2023-02-01T14:26:45;7.00;1.00
6270;DHT22;3168;51.684;6.954;2023-02-01T14:29:24;7.00;1.00
6270;DHT22;3168;51.684;6.954;2023-02-01T14:32:06;7.00;1.00
6270;DHT22;3168;51.684;6.954;2023-02-01T14:34:39;7.00;1.00
6270;DHT22;3168;51.684;6.954;2023-02-01T14:37:05;7.00;1.00
6270;DHT22;3168;51.684;6.954;2023-02-01T14:39:33;7.00;1.00
6270;DHT22;3168;51.684;6.954;2023-02-01T14:42:00;7.10;1.00
6270;DHT22;3168;51.684;6.954;2023-02-01T14:44:28;7.10;1.00
6270;DHT22;3168;51.684;6.954;2023-02-01T14:49:33;7.20;1.00
6270;DHT22;3168;51.684;6.954;2023-02-01T14:51:58;7.20;1.00
6270;DHT22;3168;51.684;6.954;2023-02-01T14:54:24;7.30;1.00
6270;DHT22;3168;51.684;6.954;2023-02-01T14:56:50;7.20;1.00
6270;DHT22;3168;51.684;6.954;2023-02-01T14:59:16;7.30;1.00
6270;DHT22;3168;51.684;6.954;2023-02-01T15:01:47;7.30;1.00
6270;DHT22;3168;51.684;6.954;2023-02-01T15:04:10;7.20;1.00
6270;DHT22;3168;51.684;6.954;2023-02-01T15:06:38;7.00;1.00
6270;DHT22;3168;51.684;6.954;2023-02-01T15:09:07;6.80;1.00
6270;DHT22;3168;51.684;6.954;2023-02-01T15:11:29;6.80;1.00
6270;DHT22;3168;51.684;6.954;2023-02-01T15:13:55;6.80;1.00
6270;DHT22;3168;51.684;6.954;2023-02-01T15:16:22;6.90;1.00
6270;DHT22;3168;51.684;6.954;2023-02-01T15:18:47;6.80;1.00
6270;DHT22;3168;51.684;6.954;2023-02-01T15:21:19;6.90;1.00
6270;DHT22;3168;51.684;6.954;2023-02-01T15:23:43;6.90;1.00
6270;DHT22;3168;51.684;6.954;2023-02-01T15:26:09;6.90;1.00
6270;DHT22;3168;51.684;6.954;2023-02-01T15:28:35;7.00;1.00
6270;DHT22;3168;51.684;6.954;2023-02-01T15:31:02;7.10;1.00
6270;DHT22;3168;51.684;6.954;2023-02-01T15:33:27;7.10;1.00
6270;DHT22;3168;51.684;6.954;2023-02-01T15:35:55;7.10;1.00
6270;DHT22;3168;51.684;6.954;2023-02-01T15:38:31;7.20;1.00
6270;DHT22;3168;51.684;6.954;2023-02-01T15:41:13;7.20;1.00
6270;DHT22;3168;51.684;6.954;2023-02-01T15:43:40;7.20;1.00
6270;DHT22;3168;51.684;6.954;2023-02-01T15:46:07;7.20;1.00
6270;DHT22;3168;51.684;6.954;2023-02-01T15:48:36;7.10;1.00
6270;DHT22;3168;51.684;6.954;2023-02-01T15:51:01;7.10;1.00
6270;DHT22;3168;51.684;6.954;2023-02-01T15:53:26;7.00;1.00
6270;DHT22;3168;51.684;6.954;2023-02-01T15:55:54;7.10;1.00
6270;DHT22;3168;51.684;6.954;2023-02-01T15:58:20;7.10;1.00
6270;DHT22;3168;51.684;6.954;2023-02-01T16:00:47;7.10;1.00
6270;DHT22;3168;51.684;6.954;2023-02-01T16:03:34;7.20;1.00
6270;DHT22;3168;51.684;6.954;2023-02-01T16:06:01;7.20;1.00
6270;DHT22;3168;51.684;6.954;2023-02-01T16:08:28;7.30;1.00
6270;DHT22;3168;51.684;6.954;2023-02-01T16:10:54;7.30;1.00
6270;DHT22;3168;51.684;6.954;2023-02-01T16:13:18;7.30;1.00
6270;DHT22;3168;51.684;6.954;2023-02-01T16:15:45;7.30;1.00
6270;DHT22;3168;51.684;6.954;2023-02-01T16:18:11;7.20;1.00
6270;DHT22;3168;51.684;6.954;2023-02-01T16:20:49;7.10;1.00
6270;DHT22;3168;51.684;6.954;2023-02-01T16:23:14;7.00;1.00
6270;DHT22;3168;51.684;6.954;2023-02-01T16:25:40;6.90;1.00
6270;DHT22;3168;51.684;6.954;2023-02-01T16:28:06;6.80;1.00
6270;DHT22;3168;51.684;6.954;2023-02-01T16:30:32;6.60;1.00
6270;DHT22;3168;51.684;6.954;2023-02-01T16:32:58;6.60;1.00
6270;DHT22;3168;51.684;6.954;2023-02-01T16:35:26;6.60;1.00
6270;DHT22;3168;51.684;6.954;2023-02-01T16:37:51;6.40;1.00
6270;DHT22;3168;51.684;6.954;2023-02-01T16:40:18;6.40;9.50
6270;DHT22;3168;51.684;6.954;2023-02-01T16:42:44;5.40;1.00
6270;DHT22;3168;51.684;6.954;2023-02-01T16:45:10;5.20;2.70
6270;DHT22;3168;51.684;6.954;2023-02-01T16:47:37;5.20;9.80
6270;DHT22;3168;51.684;6.954;2023-02-01T16:50:02;5.20;14.80
6270;DHT22;3168;51.684;6.954;2023-02-01T16:52:29;5.20;24.50
6270;DHT22;3168;51.684;6.954;2023-02-01T16:54:55;5.10;24.40
6270;DHT22;3168;51.684;6.954;2023-02-01T16:57:21;5.10;30.00
6270;DHT22;3168;51.684;6.954;2023-02-01T16:59:49;5.10;39.40
6270;DHT22;3168;51.684;6.954;2023-02-01T17:02:16;5.10;50.00
6270;DHT22;3168;51.684;6.954;2023-02-01T17:04:40;5.00;56.20
6270;DHT22;3168;51.684;6.954;2023-02-01T17:07:06;5.00;60.40
6270;DHT22;3168;51.684;6.954;2023-02-01T17:09:32;5.00;63.30
6270;DHT22;3168;51.684;6.954;2023-02-01T17:11:58;4.90;66.00
6270;DHT22;3168;51.684;6.954;2023-02-01T17:14:23;4.90;69.20
6270;DHT22;3168;51.684;6.954;2023-02-01T17:16:49;4.90;69.80
6270;DHT22;3168;51.684;6.954;2023-02-01T17:19:17;4.80;70.80
6270;DHT22;3168;51.684;6.954;2023-02-01T17:21:45;4.90;74.60
6270;DHT22;3168;51.684;6.954;2023-02-01T17:24:12;4.80;77.10
6270;DHT22;3168;51.684;6.954;2023-02-01T17:26:35;4.90;79.50
6270;DHT22;3168;51.684;6.954;2023-02-01T17:29:01;4.90;79.80
6270;DHT22;3168;51.684;6.954;2023-02-01T17:31:27;4.80;80.10